Bismarck, ND (58501)

8:47 AM CDT on July 06, 2015 (GMT -0500)
Centerville Lane | | Change Station
CLOSE
Current Station
Personal Weather Station
Location: Bismarck, ND
Elevation: 1811 ft
Nearby Weather Stations

Elev 1811 ft 46.86 °N, 100.75 °W | Updated 20 seconds ago

Haze
Haze
62.1 °F
Feels Like 62.1 °F
N
0.0
Wind Variable Wind from NNW
Gusts 1.0 mph

Today
High -- | Low -- °F
--% Chance of Precip.
Yesterday
High -- | Low -- °F
Precip. -- in
5:56 AM 9:39 PM
Waning Gibbous, 75% visible
Pressure 30.12 in
Visibility 5.0 miles
Clouds Clear
Dew Point 57 °F
Humidity 84%
Rainfall 0.00 in
Snow Depth Not available.
UV 1 out of 12
Pollen 3.30 out of 12
Air Quality Not available.
Flu Activity Not available.
METAR KBIS 061252Z 35005KT 5SM HZ CLR 16/12 A3012 RMK AO2 SLP198 T01560122

More Conditions Fewer Conditions

Pressure 30.12 in
Visibility 5.0 miles
Clouds Clear
Dew Point 57 °F
Humidity 84%
Rainfall 0.00 in
Snow Depth Not available.
UV 1 out of 12
Pollen 3.30 out of 12
Air Quality Not available.
Flu Activity Not available.
METAR KBIS 061252Z 35005KT 5SM HZ CLR 16/12 A3012 RMK AO2 SLP198 T01560122

More Conditions Fewer Conditions

10-Day Weather Forecast

×

Almanac

Astronomy

Jul. 06, 2015 Rise Set
Actual Time
Civil Twilight
Nautical Twilight
Astronomical Twilight
Moon
Length of Visible Light
Length of Day
Tomorrow will be .
, % of the Moon is Illuminated

Today's Extremes

State Highs State Lows

Community

WunderPhotos

Upload Photos

1,835,558 photos uploaded!

WunderBlogs® & News

Nearby

Air Quality

  Air Quality AQ Index Pollutant
Not available.

Snow Depth

Station Depth Elevation

Earthquake Activity

City Distance Mag. Time & Date
Minimum magnitude displayed is 2.5.

Coastal Water Temperatures

Place Temperature

Stations

Nearby Weather Stations

Station Location Temp. Windchill Dew Point Humidity Wind Precip. Elev Updated Type